sensor_id;sensor_type;location;lat;lon;timestamp;pressure;altitude;pressure_sealevel;temperature;humidity
35224;BME280;21367;51.930;8.112;2022-12-18T00:01:37;102344.00;;;-9.37;89.02
35224;BME280;21367;51.930;8.112;2022-12-18T00:06:47;102353.72;;;-9.55;89.91
35224;BME280;21367;51.930;8.112;2022-12-18T00:11:58;102343.75;;;-9.49;89.85
35224;BME280;21367;51.930;8.112;2022-12-18T00:17:04;102348.28;;;-9.47;89.66
35224;BME280;21367;51.930;8.112;2022-12-18T00:22:09;102343.31;;;-9.58;89.54
35224;BME280;21367;51.930;8.112;2022-12-18T00:27:15;102352.81;;;-9.50;89.46
35224;BME280;21367;51.930;8.112;2022-12-18T00:32:20;102357.81;;;-9.56;88.92
35224;BME280;21367;51.930;8.112;2022-12-18T00:37:25;102354.38;;;-9.56;88.58
35224;BME280;21367;51.930;8.112;2022-12-18T00:42:33;102362.97;;;-9.65;89.10
35224;BME280;21367;51.930;8.112;2022-12-18T00:47:49;102360.50;;;-9.71;89.61
35224;BME280;21367;51.930;8.112;2022-12-18T00:52:54;102353.97;;;-9.65;89.29
35224;BME280;21367;51.930;8.112;2022-12-18T00:58:00;102360.03;;;-9.63;89.05
35224;BME280;21367;51.930;8.112;2022-12-18T01:03:05;102360.97;;;-9.73;89.22
35224;BME280;21367;51.930;8.112;2022-12-18T01:08:09;102357.34;;;-9.75;89.22
35224;BME280;21367;51.930;8.112;2022-12-18T01:13:18;102362.97;;;-9.65;88.86
35224;BME280;21367;51.930;8.112;2022-12-18T01:18:26;102346.47;;;-9.76;89.34
35224;BME280;21367;51.930;8.112;2022-12-18T01:23:32;102351.03;;;-9.68;89.08
35224;BME280;21367;51.930;8.112;2022-12-18T01:28:40;102343.75;;;-9.72;88.32
35224;BME280;21367;51.930;8.112;2022-12-18T01:33:44;102354.16;;;-9.69;89.08
35224;BME280;21367;51.930;8.112;2022-12-18T01:38:53;102341.06;;;-9.68;89.06
35224;BME280;21367;51.930;8.112;2022-12-18T01:49:46;102365.47;;;-9.88;89.01
35224;BME280;21367;51.930;8.112;2022-12-18T01:54:50;102349.66;;;-9.83;89.21
35224;BME280;21367;51.930;8.112;2022-12-18T01:59:59;102358.22;;;-9.75;89.42
35224;BME280;21367;51.930;8.112;2022-12-18T02:05:18;102366.59;;;-9.74;89.12
35224;BME280;21367;51.930;8.112;2022-12-18T02:10:29;102362.75;;;-9.95;89.58
35224;BME280;21367;51.930;8.112;2022-12-18T02:15:39;102352.38;;;-9.87;89.15
35224;BME280;21367;51.930;8.112;2022-12-18T02:21:08;102352.81;;;-9.84;89.59
35224;BME280;21367;51.930;8.112;2022-12-18T02:26:25;102346.94;;;-9.79;88.99
35224;BME280;21367;51.930;8.112;2022-12-18T02:31:36;102337.88;;;-9.78;88.49
35224;BME280;21367;51.930;8.112;2022-12-18T02:36:47;102334.47;;;-9.84;88.62
35224;BME280;21367;51.930;8.112;2022-12-18T02:41:57;102345.53;;;-10.10;88.93
35224;BME280;21367;51.930;8.112;2022-12-18T02:47:03;102339.94;;;-9.92;89.28
35224;BME280;21367;51.930;8.112;2022-12-18T02:52:17;102341.25;;;-9.94;88.98
35224;BME280;21367;51.930;8.112;2022-12-18T02:57:34;102348.44;;;-10.18;90.25
35224;BME280;21367;51.930;8.112;2022-12-18T03:02:44;102348.03;;;-10.10;89.69
35224;BME280;21367;51.930;8.112;2022-12-18T03:07:56;102341.94;;;-10.07;89.06
35224;BME280;21367;51.930;8.112;2022-12-18T03:13:08;102343.06;;;-10.10;88.49
35224;BME280;21367;51.930;8.112;2022-12-18T03:18:17;102347.34;;;-10.09;88.17
35224;BME280;21367;51.930;8.112;2022-12-18T03:23:27;102339.00;;;-10.04;88.22
35224;BME280;21367;51.930;8.112;2022-12-18T03:28:38;102338.75;;;-10.00;87.91
35224;BME280;21367;51.930;8.112;2022-12-18T03:33:47;102340.16;;;-10.02;87.76
35224;BME280;21367;51.930;8.112;2022-12-18T03:38:59;102336.06;;;-10.02;88.43
35224;BME280;21367;51.930;8.112;2022-12-18T03:44:12;102344.44;;;-10.01;88.37
35224;BME280;21367;51.930;8.112;2022-12-18T03:49:24;102345.56;;;-9.93;88.25
35224;BME280;21367;51.930;8.112;2022-12-18T03:54:31;102334.28;;;-10.03;88.07
35224;BME280;21367;51.930;8.112;2022-12-18T03:59:50;102333.34;;;-9.97;87.67
35224;BME280;21367;51.930;8.112;2022-12-18T04:05:01;102331.31;;;-10.00;87.83
35224;BME280;21367;51.930;8.112;2022-12-18T04:10:10;102317.09;;;-10.01;88.07
35224;BME280;21367;51.930;8.112;2022-12-18T04:15:20;102332.44;;;-10.04;88.19
35224;BME280;21367;51.930;8.112;2022-12-18T04:20:26;102338.75;;;-10.17;88.91
35224;BME280;21367;51.930;8.112;2022-12-18T04:25:31;102341.97;;;-9.90;88.75
35224;BME280;21367;51.930;8.112;2022-12-18T04:30:45;102334.03;;;-10.04;88.53
35224;BME280;21367;51.930;8.112;2022-12-18T04:35:49;102342.84;;;-10.12;88.91
35224;BME280;21367;51.930;8.112;2022-12-18T04:40:54;102343.75;;;-10.06;89.31
35224;BME280;21367;51.930;8.112;2022-12-18T04:46:08;102358.00;;;-10.05;89.50
35224;BME280;21367;51.930;8.112;2022-12-18T04:51:12;102341.03;;;-10.02;89.35
35224;BME280;21367;51.930;8.112;2022-12-18T04:56:18;102330.41;;;-10.06;89.08
35224;BME280;21367;51.930;8.112;2022-12-18T05:01:28;102318.22;;;-10.05;88.25
35224;BME280;21367;51.930;8.112;2022-12-18T05:06:32;102320.91;;;-10.20;88.36
35224;BME280;21367;51.930;8.112;2022-12-18T05:11:39;102320.47;;;-10.12;88.83
35224;BME280;21367;51.930;8.112;2022-12-18T05:16:46;102328.13;;;-10.16;88.35
35224;BME280;21367;51.930;8.112;2022-12-18T05:21:49;102325.44;;;-10.12;88.88
35224;BME280;21367;51.930;8.112;2022-12-18T05:26:53;102335.63;;;-10.05;89.08
35224;BME280;21367;51.930;8.112;2022-12-18T05:32:01;102319.53;;;-10.12;88.78
35224;BME280;21367;51.930;8.112;2022-12-18T05:37:05;102322.75;;;-10.02;89.19
35224;BME280;21367;51.930;8.112;2022-12-18T05:42:10;102316.16;;;-10.07;89.69
35224;BME280;21367;51.930;8.112;2022-12-18T05:47:18;102320.44;;;-10.06;89.87
35224;BME280;21367;51.930;8.112;2022-12-18T05:52:22;102319.34;;;-9.91;90.13
35224;BME280;21367;51.930;8.112;2022-12-18T05:57:26;102317.09;;;-9.90;89.80
35224;BME280;21367;51.930;8.112;2022-12-18T06:02:34;102311.19;;;-9.90;89.33
35224;BME280;21367;51.930;8.112;2022-12-18T06:07:38;102324.53;;;-10.01;89.70
35224;BME280;21367;51.930;8.112;2022-12-18T06:12:43;102319.59;;;-9.90;90.13
35224;BME280;21367;51.930;8.112;2022-12-18T06:17:51;102333.13;;;-9.93;90.96
35224;BME280;21367;51.930;8.112;2022-12-18T06:22:58;102333.34;;;-9.97;92.06
35224;BME280;21367;51.930;8.112;2022-12-18T06:28:02;102348.06;;;-9.82;91.91
35224;BME280;21367;51.930;8.112;2022-12-18T06:33:08;102353.94;;;-9.76;91.37
35224;BME280;21367;51.930;8.112;2022-12-18T06:38:12;102353.25;;;-9.75;92.30
35224;BME280;21367;51.930;8.112;2022-12-18T06:43:16;102350.31;;;-9.72;90.66
35224;BME280;21367;51.930;8.112;2022-12-18T06:48:24;102356.22;;;-9.77;90.55
35224;BME280;21367;51.930;8.112;2022-12-18T06:53:31;102360.50;;;-9.76;89.88
35224;BME280;21367;51.930;8.112;2022-12-18T06:58:35;102364.13;;;-9.80;90.12
35224;BME280;21367;51.930;8.112;2022-12-18T07:03:43;102365.47;;;-9.88;89.72
35224;BME280;21367;51.930;8.112;2022-12-18T07:08:52;102357.09;;;-9.88;89.84
35224;BME280;21367;51.930;8.112;2022-12-18T07:13:56;102362.78;;;-9.84;89.91
35224;BME280;21367;51.930;8.112;2022-12-18T07:19:03;102364.13;;;-9.80;89.72
35224;BME280;21367;51.930;8.112;2022-12-18T07:24:08;102350.09;;;-9.80;89.68
35224;BME280;21367;51.930;8.112;2022-12-18T07:29:12;102356.41;;;-9.87;89.78
35224;BME280;21367;51.930;8.112;2022-12-18T07:34:21;102358.44;;;-9.85;89.41
35224;BME280;21367;51.930;8.112;2022-12-18T07:39:26;102362.75;;;-9.72;89.48
35224;BME280;21367;51.930;8.112;2022-12-18T07:44:30;102354.59;;;-9.71;88.97
35224;BME280;21367;51.930;8.112;2022-12-18T07:54:46;102347.38;;;-9.53;89.12
35224;BME280;21367;51.930;8.112;2022-12-18T07:59:51;102339.72;;;-9.49;89.59
35224;BME280;21367;51.930;8.112;2022-12-18T08:04:54;102330.34;;;-9.11;89.63
35224;BME280;21367;51.930;8.112;2022-12-18T08:10:01;102332.84;;;-9.22;89.36
35224;BME280;21367;51.930;8.112;2022-12-18T08:15:07;102317.91;;;-9.05;90.00
35224;BME280;21367;51.930;8.112;2022-12-18T08:20:12;102320.34;;;-8.99;90.28
35224;BME280;21367;51.930;8.112;2022-12-18T08:25:19;102304.22;;;-8.85;91.58
35224;BME280;21367;51.930;8.112;2022-12-18T08:30:23;102315.69;;;-8.68;91.72
35224;BME280;21367;51.930;8.112;2022-12-18T08:35:27;102328.50;;;-8.43;91.48
35224;BME280;21367;51.930;8.112;2022-12-18T08:40:34;102329.53;;;-8.29;91.58
35224;BME280;21367;51.930;8.112;2022-12-18T08:45:37;102317.47;;;-8.21;92.07
35224;BME280;21367;51.930;8.112;2022-12-18T08:50:41;102309.78;;;-7.93;92.17
35224;BME280;21367;51.930;8.112;2022-12-18T08:55:47;102299.38;;;-7.96;92.99
35224;BME280;21367;51.930;8.112;2022-12-18T09:00:52;102303.88;;;-7.63;95.35
35224;BME280;21367;51.930;8.112;2022-12-18T09:05:55;102305.13;;;-7.30;96.65
35224;BME280;21367;51.930;8.112;2022-12-18T09:11:03;102302.97;;;-6.97;97.58
35224;BME280;21367;51.930;8.112;2022-12-18T09:16:07;102299.75;;;-6.78;97.57
35224;BME280;21367;51.930;8.112;2022-12-18T09:21:13;102287.75;;;-6.62;100.00
35224;BME280;21367;51.930;8.112;2022-12-18T09:26:21;102297.44;;;-6.40;100.00
35224;BME280;21367;51.930;8.112;2022-12-18T09:31:25;102286.31;;;-6.23;100.00
35224;BME280;21367;51.930;8.112;2022-12-18T09:36:29;102297.91;;;-6.11;100.00
35224;BME280;21367;51.930;8.112;2022-12-18T09:41:59;102303.47;;;-5.88;100.00
35224;BME280;21367;51.930;8.112;2022-12-18T09:47:07;102290.56;;;-5.53;100.00
35224;BME280;21367;51.930;8.112;2022-12-18T09:52:17;102301.38;;;-5.47;100.00
35224;BME280;21367;51.930;8.112;2022-12-18T09:57:25;102301.06;;;-5.30;100.00
35224;BME280;21367;51.930;8.112;2022-12-18T10:02:30;102308.69;;;-5.10;100.00
35224;BME280;21367;51.930;8.112;2022-12-18T10:07:45;102299.09;;;-4.87;100.00
35224;BME280;21367;51.930;8.112;2022-12-18T10:13:00;102276.91;;;-4.51;100.00
35224;BME280;21367;51.930;8.112;2022-12-18T10:18:17;102258.53;;;-4.25;100.00
35224;BME280;21367;51.930;8.112;2022-12-18T10:23:29;102233.47;;;-3.98;100.00
35224;BME280;21367;51.930;8.112;2022-12-18T10:28:40;102217.34;;;-3.92;100.00
35224;BME280;21367;51.930;8.112;2022-12-18T10:33:44;102227.44;;;-3.85;100.00
35224;BME280;21367;51.930;8.112;2022-12-18T10:38:48;102228.56;;;-3.76;100.00
35224;BME280;21367;51.930;8.112;2022-12-18T10:44:11;102210.88;;;-3.63;100.00
35224;BME280;21367;51.930;8.112;2022-12-18T10:49:22;102227.53;;;-3.64;100.00
35224;BME280;21367;51.930;8.112;2022-12-18T10:54:33;102223.50;;;-3.49;100.00
35224;BME280;21367;51.930;8.112;2022-12-18T10:59:51;102178.13;;;-3.43;100.00
35224;BME280;21367;51.930;8.112;2022-12-18T11:04:55;102159.13;;;-3.27;100.00
35224;BME280;21367;51.930;8.112;2022-12-18T11:10:00;102146.63;;;-3.13;100.00
35224;BME280;21367;51.930;8.112;2022-12-18T11:15:15;102151.81;;;-3.04;100.00
35224;BME280;21367;51.930;8.112;2022-12-18T11:20:26;102146.81;;;-2.90;100.00
35224;BME280;21367;51.930;8.112;2022-12-18T11:25:33;102140.00;;;-2.62;100.00
35224;BME280;21367;51.930;8.112;2022-12-18T11:30:40;102142.34;;;-2.71;100.00
35224;BME280;21367;51.930;8.112;2022-12-18T11:35:48;102140.34;;;-2.45;100.00
35224;BME280;21367;51.930;8.112;2022-12-18T11:40:56;102133.00;;;-2.50;100.00
35224;BME280;21367;51.930;8.112;2022-12-18T11:46:08;102102.97;;;-2.49;100.00
35224;BME280;21367;51.930;8.112;2022-12-18T11:51:28;102103.88;;;-2.41;100.00
35224;BME280;21367;51.930;8.112;2022-12-18T11:56:36;102071.47;;;-2.31;100.00
35224;BME280;21367;51.930;8.112;2022-12-18T12:01:50;102069.13;;;-2.29;100.00
35224;BME280;21367;51.930;8.112;2022-12-18T12:07:01;102066.72;;;-2.14;100.00
35224;BME280;21367;51.930;8.112;2022-12-18T12:12:22;102081.16;;;-2.27;100.00
35224;BME280;21367;51.930;8.112;2022-12-18T12:17:36;102080.38;;;-1.97;100.00
35224;BME280;21367;51.930;8.112;2022-12-18T12:22:45;102062.03;;;-2.03;100.00
35224;BME280;21367;51.930;8.112;2022-12-18T12:27:59;102053.44;;;-2.20;100.00
35224;BME280;21367;51.930;8.112;2022-12-18T12:33:21;102059.06;;;-2.22;100.00
35224;BME280;21367;51.930;8.112;2022-12-18T12:38:33;102058.78;;;-2.02;100.00
35224;BME280;21367;51.930;8.112;2022-12-18T12:43:42;102058.72;;;-1.81;100.00
35224;BME280;21367;51.930;8.112;2022-12-18T12:48:51;102044.91;;;-1.99;100.00
35224;BME280;21367;51.930;8.112;2022-12-18T12:53:57;102026.25;;;-2.08;100.00
35224;BME280;21367;51.930;8.112;2022-12-18T12:59:11;102012.56;;;-2.10;100.00
35224;BME280;21367;51.930;8.112;2022-12-18T13:04:27;102005.78;;;-2.18;100.00
35224;BME280;21367;51.930;8.112;2022-12-18T13:09:34;102002.69;;;-2.08;100.00
35224;BME280;21367;51.930;8.112;2022-12-18T13:15:12;102004.84;;;-2.12;100.00
35224;BME280;21367;51.930;8.112;2022-12-18T13:20:20;101994.59;;;-2.13;100.00
35224;BME280;21367;51.930;8.112;2022-12-18T13:25:42;101984.06;;;-1.88;100.00
35224;BME280;21367;51.930;8.112;2022-12-18T13:30:51;101973.00;;;-2.11;100.00
35224;BME280;21367;51.930;8.112;2022-12-18T13:36:10;101972.84;;;-2.13;100.00
35224;BME280;21367;51.930;8.112;2022-12-18T13:41:22;101964.38;;;-2.06;100.00
35224;BME280;21367;51.930;8.112;2022-12-18T13:46:28;101958.44;;;-2.14;100.00
35224;BME280;21367;51.930;8.112;2022-12-18T13:51:35;101956.47;;;-2.09;100.00
35224;BME280;21367;51.930;8.112;2022-12-18T13:56:43;101956.28;;;-2.11;100.00
35224;BME280;21367;51.930;8.112;2022-12-18T14:01:52;101940.47;;;-2.10;99.04
35224;BME280;21367;51.930;8.112;2022-12-18T14:07:03;101942.97;;;-2.10;98.72
35224;BME280;21367;51.930;8.112;2022-12-18T14:12:14;101958.44;;;-2.14;98.95
35224;BME280;21367;51.930;8.112;2022-12-18T14:17:32;101953.56;;;-2.05;98.20
35224;BME280;21367;51.930;8.112;2022-12-18T14:22:42;101935.09;;;-2.13;98.06
35224;BME280;21367;51.930;8.112;2022-12-18T14:27:50;101931.44;;;-2.07;95.84
35224;BME280;21367;51.930;8.112;2022-12-18T14:33:04;101933.94;;;-2.07;94.48
35224;BME280;21367;51.930;8.112;2022-12-18T14:38:20;101930.03;;;-2.13;95.11
35224;BME280;21367;51.930;8.112;2022-12-18T14:43:26;101926.06;;;-2.11;94.38
35224;BME280;21367;51.930;8.112;2022-12-18T14:48:36;101912.56;;;-2.11;93.34
35224;BME280;21367;51.930;8.112;2022-12-18T14:53:44;101907.16;;;-2.07;92.05
35224;BME280;21367;51.930;8.112;2022-12-18T14:58:51;101899.91;;;-1.97;90.74
35224;BME280;21367;51.930;8.112;2022-12-18T15:03:57;101897.59;;;-2.02;90.87
35224;BME280;21367;51.930;8.112;2022-12-18T15:09:21;101896.66;;;-1.96;89.33
35224;BME280;21367;51.930;8.112;2022-12-18T15:14:38;101900.25;;;-1.94;88.70
35224;BME280;21367;51.930;8.112;2022-12-18T15:19:43;101885.06;;;-1.87;86.95
35224;BME280;21367;51.930;8.112;2022-12-18T15:24:51;101881.19;;;-1.99;88.62
35224;BME280;21367;51.930;8.112;2022-12-18T15:30:20;101871.06;;;-1.92;87.42
35224;BME280;21367;51.930;8.112;2022-12-18T15:35:24;101859.19;;;-1.93;87.30
35224;BME280;21367;51.930;8.112;2022-12-18T15:40:32;101847.50;;;-1.92;87.17
35224;BME280;21367;51.930;8.112;2022-12-18T15:45:36;101837.34;;;-1.85;86.23
35224;BME280;21367;51.930;8.112;2022-12-18T15:50:40;101813.75;;;-1.78;85.74
35224;BME280;21367;51.930;8.112;2022-12-18T15:55:46;101810.66;;;-1.76;84.86
35224;BME280;21367;51.930;8.112;2022-12-18T16:01:04;101819.28;;;-1.74;84.83
35224;BME280;21367;51.930;8.112;2022-12-18T16:06:09;101810.66;;;-1.76;84.72
35224;BME280;21367;51.930;8.112;2022-12-18T16:11:22;101800.19;;;-1.72;84.25
35224;BME280;21367;51.930;8.112;2022-12-18T16:16:39;101793.53;;;-1.71;83.66
35224;BME280;21367;51.930;8.112;2022-12-18T16:21:42;101785.06;;;-1.72;83.97
35224;BME280;21367;51.930;8.112;2022-12-18T16:26:49;101779.78;;;-1.66;82.81
35224;BME280;21367;51.930;8.112;2022-12-18T16:31:56;101762.72;;;-1.69;82.96
35224;BME280;21367;51.930;8.112;2022-12-18T16:37:01;101764.97;;;-1.63;82.58
35224;BME280;21367;51.930;8.112;2022-12-18T16:42:10;101768.41;;;-1.63;82.91
35224;BME280;21367;51.930;8.112;2022-12-18T16:47:17;101766.28;;;-1.67;82.53
35224;BME280;21367;51.930;8.112;2022-12-18T16:52:23;101764.41;;;-1.60;82.52
35224;BME280;21367;51.930;8.112;2022-12-18T16:57:30;101771.84;;;-1.62;82.13
35224;BME280;21367;51.930;8.112;2022-12-18T17:02:35;101775.66;;;-1.66;81.94
35224;BME280;21367;51.930;8.112;2022-12-18T17:07:39;101764.03;;;-1.56;82.69
35224;BME280;21367;51.930;8.112;2022-12-18T17:12:49;101766.88;;;-1.69;81.96
35224;BME280;21367;51.930;8.112;2022-12-18T17:17:53;101758.91;;;-1.65;81.98
35224;BME280;21367;51.930;8.112;2022-12-18T17:22:58;101751.09;;;-1.75;81.87
35224;BME280;21367;51.930;8.112;2022-12-18T17:28:04;101751.91;;;-1.68;82.02
35224;BME280;21367;51.930;8.112;2022-12-18T17:33:08;101751.25;;;-1.74;81.83
35224;BME280;21367;51.930;8.112;2022-12-18T17:38:13;101746.13;;;-1.67;81.75
35224;BME280;21367;51.930;8.112;2022-12-18T17:43:20;101735.06;;;-1.76;81.66
35224;BME280;21367;51.930;8.112;2022-12-18T17:48:24;101750.03;;;-1.77;81.93
35224;BME280;21367;51.930;8.112;2022-12-18T17:53:29;101761.22;;;-1.82;82.16
35224;BME280;21367;51.930;8.112;2022-12-18T17:58:37;101774.31;;;-1.78;82.37
35224;BME280;21367;51.930;8.112;2022-12-18T18:03:42;101750.09;;;-1.84;82.78
35224;BME280;21367;51.930;8.112;2022-12-18T18:08:46;101767.09;;;-1.75;83.14
35224;BME280;21367;51.930;8.112;2022-12-18T18:13:53;101765.88;;;-1.78;81.88
35224;BME280;21367;51.930;8.112;2022-12-18T18:19:07;101759.09;;;-1.87;82.89
35224;BME280;21367;51.930;8.112;2022-12-18T18:24:13;101750.44;;;-2.04;83.56
35224;BME280;21367;51.930;8.112;2022-12-18T18:29:20;101734.63;;;-2.03;83.84
35224;BME280;21367;51.930;8.112;2022-12-18T18:34:26;101726.34;;;-2.02;83.44
35224;BME280;21367;51.930;8.112;2022-12-18T18:39:30;101731.66;;;-2.15;83.63
35224;BME280;21367;51.930;8.112;2022-12-18T18:44:37;101734.81;;;-2.25;83.88
35224;BME280;21367;51.930;8.112;2022-12-18T18:49:40;101751.81;;;-2.15;83.57
35224;BME280;21367;51.930;8.112;2022-12-18T18:54:46;101740.47;;;-2.35;84.71
35224;BME280;21367;51.930;8.112;2022-12-18T18:59:52;101739.03;;;-2.17;84.47
35224;BME280;21367;51.930;8.112;2022-12-18T19:04:55;101741.13;;;1.43;100.00
35224;BME280;21367;51.930;8.112;2022-12-18T19:09:59;101748.25;;;-1.15;81.39
35224;BME280;21367;51.930;8.112;2022-12-18T19:15:06;101751.06;;;-1.91;82.79
35224;BME280;21367;51.930;8.112;2022-12-18T19:20:11;101756.25;;;-1.90;83.98
35224;BME280;21367;51.930;8.112;2022-12-18T19:25:15;101772.16;;;-2.21;84.30
35224;BME280;21367;51.930;8.112;2022-12-18T19:30:22;101774.41;;;-2.08;84.92
35224;BME280;21367;51.930;8.112;2022-12-18T19:35:28;101770.44;;;-2.06;85.45
35224;BME280;21367;51.930;8.112;2022-12-18T19:40:32;101769.91;;;-2.11;85.45
35224;BME280;21367;51.930;8.112;2022-12-18T19:45:38;101776.53;;;-2.27;86.54
35224;BME280;21367;51.930;8.112;2022-12-18T19:50:42;101772.16;;;-2.44;87.35
35224;BME280;21367;51.930;8.112;2022-12-18T19:55:46;101768.19;;;-2.42;87.54
35224;BME280;21367;51.930;8.112;2022-12-18T20:00:52;101772.06;;;-2.29;88.19
35224;BME280;21367;51.930;8.112;2022-12-18T20:06:07;101757.22;;;-2.42;89.09
35224;BME280;21367;51.930;8.112;2022-12-18T20:11:10;101760.13;;;-2.46;89.80
35224;BME280;21367;51.930;8.112;2022-12-18T20:16:17;101762.38;;;-2.34;90.50
35224;BME280;21367;51.930;8.112;2022-12-18T20:21:22;101753.88;;;-2.27;90.71
35224;BME280;21367;51.930;8.112;2022-12-18T20:26:26;101764.28;;;-2.24;90.65
35224;BME280;21367;51.930;8.112;2022-12-18T20:31:33;101758.56;;;-2.30;91.73
35224;BME280;21367;51.930;8.112;2022-12-18T20:36:37;101756.13;;;-2.37;92.40
35224;BME280;21367;51.930;8.112;2022-12-18T20:41:41;101755.63;;;-2.19;92.07
35224;BME280;21367;51.930;8.112;2022-12-18T20:46:48;101756.41;;;-2.27;93.00
35224;BME280;21367;51.930;8.112;2022-12-18T20:51:53;101758.44;;;-2.39;93.33
35224;BME280;21367;51.930;8.112;2022-12-18T20:56:57;101744.53;;;-2.28;93.20
35224;BME280;21367;51.930;8.112;2022-12-18T21:02:05;101728.50;;;-2.44;94.06
35224;BME280;21367;51.930;8.112;2022-12-18T21:07:09;101740.00;;;-2.46;93.83
35224;BME280;21367;51.930;8.112;2022-12-18T21:12:14;101740.88;;;-2.23;92.93
35224;BME280;21367;51.930;8.112;2022-12-18T21:17:33;101743.81;;;-2.27;92.56
35224;BME280;21367;51.930;8.112;2022-12-18T21:22:38;101743.66;;;-2.28;93.15
35224;BME280;21367;51.930;8.112;2022-12-18T21:27:45;101751.47;;;-2.18;92.88
35224;BME280;21367;51.930;8.112;2022-12-18T21:32:52;101758.34;;;-2.24;93.25
35224;BME280;21367;51.930;8.112;2022-12-18T21:37:56;101762.50;;;-2.25;93.40
35224;BME280;21367;51.930;8.112;2022-12-18T21:43:01;101754.22;;;-2.24;93.97
35224;BME280;21367;51.930;8.112;2022-12-18T21:48:20;101748.84;;;-2.27;94.10
35224;BME280;21367;51.930;8.112;2022-12-18T21:53:24;101747.50;;;-2.16;94.00
35224;BME280;21367;51.930;8.112;2022-12-18T21:58:28;101737.47;;;-2.00;93.27
35224;BME280;21367;51.930;8.112;2022-12-18T22:03:34;101733.38;;;-2.07;94.37
35224;BME280;21367;51.930;8.112;2022-12-18T22:08:38;101729.63;;;-2.11;94.92
35224;BME280;21367;51.930;8.112;2022-12-18T22:13:42;101729.28;;;-1.91;94.37
35224;BME280;21367;51.930;8.112;2022-12-18T22:18:48;101727.00;;;-1.96;95.86
35224;BME280;21367;51.930;8.112;2022-12-18T22:23:57;101713.75;;;-1.87;97.05
35224;BME280;21367;51.930;8.112;2022-12-18T22:29:01;101702.72;;;-1.80;98.71
35224;BME280;21367;51.930;8.112;2022-12-18T22:34:20;101702.72;;;-1.80;100.00
35224;BME280;21367;51.930;8.112;2022-12-18T22:39:26;101706.69;;;-1.82;100.00
35224;BME280;21367;51.930;8.112;2022-12-18T22:44:30;101692.88;;;-1.70;100.00
35224;BME280;21367;51.930;8.112;2022-12-18T22:49:36;101693.84;;;-1.76;100.00
35224;BME280;21367;51.930;8.112;2022-12-18T22:54:41;101695.34;;;-1.63;100.00
35224;BME280;21367;51.930;8.112;2022-12-18T22:59:46;101698.09;;;-1.68;100.00
35224;BME280;21367;51.930;8.112;2022-12-18T23:04:52;101693.06;;;-1.52;100.00
35224;BME280;21367;51.930;8.112;2022-12-18T23:09:56;101690.03;;;-1.57;100.00
35224;BME280;21367;51.930;8.112;2022-12-18T23:14:59;101694.75;;;-1.60;100.00
35224;BME280;21367;51.930;8.112;2022-12-18T23:20:09;101682.88;;;-1.61;100.00
35224;BME280;21367;51.930;8.112;2022-12-18T23:25:13;101674.56;;;-1.60;100.00
35224;BME280;21367;51.930;8.112;2022-12-18T23:30:17;101665.34;;;-1.68;100.00
35224;BME280;21367;51.930;8.112;2022-12-18T23:35:23;101656.03;;;-1.45;100.00
35224;BME280;21367;51.930;8.112;2022-12-18T23:40:28;101645.31;;;-1.51;100.00
35224;BME280;21367;51.930;8.112;2022-12-18T23:45:36;101641.63;;;-1.30;100.00
35224;BME280;21367;51.930;8.112;2022-12-18T23:50:42;101629.44;;;-1.34;100.00
35224;BME280;21367;51.930;8.112;2022-12-18T23:55:46;101617.41;;;-1.36;100.00
